sensor_id;sensor_type;location;lat;lon;timestamp;P1;durP1;ratioP1;P2;durP2;ratioP2
21010;SDS011;10663;42.714;23.274;2022-12-18T00:00:06;11.88;;;9.90;;
21010;SDS011;10663;42.714;23.274;2022-12-18T00:01:44;13.23;;;10.63;;
21010;SDS011;10663;42.714;23.274;2022-12-18T00:03:15;13.43;;;10.93;;
21010;SDS011;10663;42.714;23.274;2022-12-18T00:04:46;13.13;;;11.25;;
21010;SDS011;10663;42.714;23.274;2022-12-18T00:06:16;14.50;;;10.95;;
21010;SDS011;10663;42.714;23.274;2022-12-18T00:07:48;13.77;;;10.95;;
21010;SDS011;10663;42.714;23.274;2022-12-18T00:09:19;13.95;;;11.23;;
21010;SDS011;10663;42.714;23.274;2022-12-18T00:10:51;15.95;;;11.55;;
21010;SDS011;10663;42.714;23.274;2022-12-18T00:12:22;12.95;;;11.23;;
21010;SDS011;10663;42.714;23.274;2022-12-18T00:13:53;12.95;;;11.40;;
21010;SDS011;10663;42.714;23.274;2022-12-18T00:15:25;14.10;;;10.77;;
21010;SDS011;10663;42.714;23.274;2022-12-18T00:16:55;13.77;;;11.63;;
21010;SDS011;10663;42.714;23.274;2022-12-18T00:18:28;14.48;;;11.38;;
21010;SDS011;10663;42.714;23.274;2022-12-18T00:19:59;15.40;;;11.87;;
21010;SDS011;10663;42.714;23.274;2022-12-18T00:21:30;15.23;;;12.10;;
21010;SDS011;10663;42.714;23.274;2022-12-18T00:23:02;15.65;;;12.27;;
21010;SDS011;10663;42.714;23.274;2022-12-18T00:24:33;15.43;;;11.77;;
21010;SDS011;10663;42.714;23.274;2022-12-18T00:26:06;14.83;;;11.73;;
21010;SDS011;10663;42.714;23.274;2022-12-18T00:27:40;15.95;;;12.32;;
21010;SDS011;10663;42.714;23.274;2022-12-18T00:29:12;15.75;;;11.95;;
21010;SDS011;10663;42.714;23.274;2022-12-18T00:30:47;16.75;;;13.23;;
21010;SDS011;10663;42.714;23.274;2022-12-18T00:32:21;14.90;;;11.80;;
21010;SDS011;10663;42.714;23.274;2022-12-18T00:33:55;14.30;;;11.68;;
21010;SDS011;10663;42.714;23.274;2022-12-18T00:35:26;14.90;;;11.52;;
21010;SDS011;10663;42.714;23.274;2022-12-18T00:36:57;14.43;;;11.20;;
21010;SDS011;10663;42.714;23.274;2022-12-18T00:38:28;14.77;;;10.93;;
21010;SDS011;10663;42.714;23.274;2022-12-18T00:39:59;13.85;;;10.68;;
21010;SDS011;10663;42.714;23.274;2022-12-18T00:41:32;14.25;;;11.13;;
21010;SDS011;10663;42.714;23.274;2022-12-18T00:43:27;14.63;;;11.67;;
21010;SDS011;10663;42.714;23.274;2022-12-18T00:44:58;14.95;;;12.00;;
21010;SDS011;10663;42.714;23.274;2022-12-18T00:46:29;14.75;;;11.52;;
21010;SDS011;10663;42.714;23.274;2022-12-18T00:48:00;15.27;;;11.60;;
21010;SDS011;10663;42.714;23.274;2022-12-18T00:49:31;14.10;;;11.27;;
21010;SDS011;10663;42.714;23.274;2022-12-18T00:51:01;14.85;;;11.50;;
21010;SDS011;10663;42.714;23.274;2022-12-18T00:52:33;15.60;;;12.25;;
21010;SDS011;10663;42.714;23.274;2022-12-18T00:54:04;13.85;;;11.43;;
21010;SDS011;10663;42.714;23.274;2022-12-18T00:55:37;16.13;;;11.60;;
21010;SDS011;10663;42.714;23.274;2022-12-18T00:57:09;14.88;;;11.77;;
21010;SDS011;10663;42.714;23.274;2022-12-18T00:58:40;14.27;;;12.18;;
21010;SDS011;10663;42.714;23.274;2022-12-18T01:00:12;16.27;;;12.90;;
21010;SDS011;10663;42.714;23.274;2022-12-18T01:01:45;14.00;;;12.07;;
21010;SDS011;10663;42.714;23.274;2022-12-18T01:03:16;13.70;;;11.77;;
21010;SDS011;10663;42.714;23.274;2022-12-18T01:04:48;16.73;;;12.63;;
21010;SDS011;10663;42.714;23.274;2022-12-18T01:06:22;16.77;;;12.68;;
21010;SDS011;10663;42.714;23.274;2022-12-18T01:07:54;17.27;;;12.75;;
21010;SDS011;10663;42.714;23.274;2022-12-18T01:09:25;14.05;;;12.55;;
21010;SDS011;10663;42.714;23.274;2022-12-18T01:10:56;16.07;;;12.87;;
21010;SDS011;10663;42.714;23.274;2022-12-18T01:12:29;18.40;;;13.63;;
21010;SDS011;10663;42.714;23.274;2022-12-18T01:14:00;16.95;;;13.90;;
21010;SDS011;10663;42.714;23.274;2022-12-18T01:15:30;17.00;;;13.40;;
21010;SDS011;10663;42.714;23.274;2022-12-18T01:17:01;17.85;;;12.98;;
21010;SDS011;10663;42.714;23.274;2022-12-18T01:18:36;15.77;;;12.60;;
21010;SDS011;10663;42.714;23.274;2022-12-18T01:20:07;17.42;;;13.48;;
21010;SDS011;10663;42.714;23.274;2022-12-18T01:21:39;16.87;;;13.60;;
21010;SDS011;10663;42.714;23.274;2022-12-18T01:23:10;20.27;;;14.98;;
21010;SDS011;10663;42.714;23.274;2022-12-18T01:24:41;16.77;;;13.47;;
21010;SDS011;10663;42.714;23.274;2022-12-18T01:26:13;17.63;;;13.93;;
21010;SDS011;10663;42.714;23.274;2022-12-18T01:27:45;17.05;;;13.05;;
21010;SDS011;10663;42.714;23.274;2022-12-18T01:29:16;17.58;;;13.77;;
21010;SDS011;10663;42.714;23.274;2022-12-18T01:30:47;18.20;;;14.18;;
21010;SDS011;10663;42.714;23.274;2022-12-18T01:32:18;17.65;;;13.85;;
21010;SDS011;10663;42.714;23.274;2022-12-18T01:33:50;16.48;;;12.85;;
21010;SDS011;10663;42.714;23.274;2022-12-18T01:35:22;16.08;;;13.02;;
21010;SDS011;10663;42.714;23.274;2022-12-18T01:36:52;18.08;;;13.98;;
21010;SDS011;10663;42.714;23.274;2022-12-18T01:38:23;15.93;;;13.23;;
21010;SDS011;10663;42.714;23.274;2022-12-18T01:39:55;18.90;;;13.83;;
21010;SDS011;10663;42.714;23.274;2022-12-18T01:41:27;20.97;;;14.57;;
21010;SDS011;10663;42.714;23.274;2022-12-18T01:43:22;20.20;;;14.67;;
21010;SDS011;10663;42.714;23.274;2022-12-18T01:46:25;18.58;;;13.77;;
21010;SDS011;10663;42.714;23.274;2022-12-18T01:48:08;17.00;;;12.98;;
21010;SDS011;10663;42.714;23.274;2022-12-18T01:49:41;17.67;;;12.55;;
21010;SDS011;10663;42.714;23.274;2022-12-18T01:51:12;16.83;;;12.60;;
21010;SDS011;10663;42.714;23.274;2022-12-18T01:52:43;15.55;;;12.77;;
21010;SDS011;10663;42.714;23.274;2022-12-18T01:54:17;14.73;;;12.13;;
21010;SDS011;10663;42.714;23.274;2022-12-18T01:55:49;15.95;;;12.45;;
21010;SDS011;10663;42.714;23.274;2022-12-18T01:57:23;15.80;;;11.57;;
21010;SDS011;10663;42.714;23.274;2022-12-18T01:59:04;15.65;;;11.80;;
21010;SDS011;10663;42.714;23.274;2022-12-18T02:00:39;14.88;;;12.15;;
21010;SDS011;10663;42.714;23.274;2022-12-18T02:02:10;16.23;;;12.50;;
21010;SDS011;10663;42.714;23.274;2022-12-18T02:03:42;16.40;;;12.50;;
21010;SDS011;10663;42.714;23.274;2022-12-18T02:05:15;15.45;;;11.60;;
21010;SDS011;10663;42.714;23.274;2022-12-18T02:07:35;15.32;;;11.45;;
21010;SDS011;10663;42.714;23.274;2022-12-18T02:16:39;14.65;;;11.50;;
21010;SDS011;10663;42.714;23.274;2022-12-18T02:18:14;13.25;;;10.13;;
21010;SDS011;10663;42.714;23.274;2022-12-18T02:20:15;13.40;;;10.83;;
21010;SDS011;10663;42.714;23.274;2022-12-18T02:22:05;14.63;;;11.27;;
21010;SDS011;10663;42.714;23.274;2022-12-18T02:25:40;14.90;;;10.77;;
21010;SDS011;10663;42.714;23.274;2022-12-18T02:27:32;15.27;;;11.60;;
21010;SDS011;10663;42.714;23.274;2022-12-18T02:29:10;15.68;;;10.95;;
21010;SDS011;10663;42.714;23.274;2022-12-18T02:30:47;14.25;;;10.85;;
21010;SDS011;10663;42.714;23.274;2022-12-18T02:32:22;15.45;;;11.40;;
21010;SDS011;10663;42.714;23.274;2022-12-18T02:34:00;14.52;;;10.77;;
21010;SDS011;10663;42.714;23.274;2022-12-18T02:35:39;15.63;;;11.23;;
21010;SDS011;10663;42.714;23.274;2022-12-18T02:37:13;15.98;;;11.90;;
21010;SDS011;10663;42.714;23.274;2022-12-18T02:38:47;14.90;;;11.80;;
21010;SDS011;10663;42.714;23.274;2022-12-18T02:40:20;14.75;;;11.18;;
21010;SDS011;10663;42.714;23.274;2022-12-18T02:41:53;14.98;;;11.27;;
21010;SDS011;10663;42.714;23.274;2022-12-18T02:43:27;14.00;;;11.20;;
21010;SDS011;10663;42.714;23.274;2022-12-18T02:45:02;14.87;;;11.37;;
21010;SDS011;10663;42.714;23.274;2022-12-18T02:46:35;14.98;;;10.90;;
21010;SDS011;10663;42.714;23.274;2022-12-18T02:48:22;14.35;;;11.18;;
21010;SDS011;10663;42.714;23.274;2022-12-18T02:53:51;15.25;;;11.88;;
21010;SDS011;10663;42.714;23.274;2022-12-18T02:55:48;17.40;;;12.27;;
21010;SDS011;10663;42.714;23.274;2022-12-18T02:57:43;16.75;;;12.13;;
21010;SDS011;10663;42.714;23.274;2022-12-18T02:59:41;16.20;;;12.88;;
21010;SDS011;10663;42.714;23.274;2022-12-18T03:03:05;15.70;;;12.55;;
21010;SDS011;10663;42.714;23.274;2022-12-18T03:04:43;15.00;;;11.30;;
21010;SDS011;10663;42.714;23.274;2022-12-18T03:06:30;17.98;;;11.65;;
21010;SDS011;10663;42.714;23.274;2022-12-18T03:08:07;16.80;;;11.82;;
21010;SDS011;10663;42.714;23.274;2022-12-18T03:09:44;14.18;;;11.15;;
21010;SDS011;10663;42.714;23.274;2022-12-18T03:11:19;15.95;;;11.70;;
21010;SDS011;10663;42.714;23.274;2022-12-18T03:13:20;13.93;;;10.90;;
21010;SDS011;10663;42.714;23.274;2022-12-18T03:17:24;14.73;;;10.73;;
21010;SDS011;10663;42.714;23.274;2022-12-18T03:19:01;14.93;;;11.40;;
21010;SDS011;10663;42.714;23.274;2022-12-18T03:20:37;13.88;;;11.23;;
21010;SDS011;10663;42.714;23.274;2022-12-18T03:22:13;13.68;;;10.85;;
21010;SDS011;10663;42.714;23.274;2022-12-18T03:23:51;13.50;;;10.13;;
21010;SDS011;10663;42.714;23.274;2022-12-18T03:25:27;15.23;;;10.15;;
21010;SDS011;10663;42.714;23.274;2022-12-18T03:27:01;15.18;;;10.65;;
21010;SDS011;10663;42.714;23.274;2022-12-18T03:28:37;13.93;;;10.45;;
21010;SDS011;10663;42.714;23.274;2022-12-18T03:30:13;13.38;;;9.88;;
21010;SDS011;10663;42.714;23.274;2022-12-18T03:31:49;12.98;;;9.88;;
21010;SDS011;10663;42.714;23.274;2022-12-18T03:33:29;16.05;;;11.27;;
21010;SDS011;10663;42.714;23.274;2022-12-18T03:35:07;13.77;;;10.40;;
21010;SDS011;10663;42.714;23.274;2022-12-18T03:36:42;13.23;;;10.23;;
21010;SDS011;10663;42.714;23.274;2022-12-18T03:38:13;13.43;;;10.07;;
21010;SDS011;10663;42.714;23.274;2022-12-18T03:39:48;13.27;;;10.57;;
21010;SDS011;10663;42.714;23.274;2022-12-18T03:45:09;13.98;;;10.32;;
21010;SDS011;10663;42.714;23.274;2022-12-18T03:46:50;15.15;;;11.27;;
21010;SDS011;10663;42.714;23.274;2022-12-18T03:48:31;16.42;;;11.93;;
21010;SDS011;10663;42.714;23.274;2022-12-18T03:50:35;13.32;;;11.00;;
21010;SDS011;10663;42.714;23.274;2022-12-18T03:52:36;16.75;;;11.48;;
21010;SDS011;10663;42.714;23.274;2022-12-18T03:54:11;15.05;;;11.30;;
21010;SDS011;10663;42.714;23.274;2022-12-18T03:55:51;16.97;;;12.17;;
21010;SDS011;10663;42.714;23.274;2022-12-18T03:57:23;15.73;;;12.25;;
21010;SDS011;10663;42.714;23.274;2022-12-18T03:58:58;16.85;;;12.70;;
21010;SDS011;10663;42.714;23.274;2022-12-18T04:00:32;15.95;;;12.48;;
21010;SDS011;10663;42.714;23.274;2022-12-18T04:02:11;17.07;;;12.20;;
21010;SDS011;10663;42.714;23.274;2022-12-18T04:03:44;15.32;;;11.80;;
21010;SDS011;10663;42.714;23.274;2022-12-18T04:05:18;16.58;;;12.43;;
21010;SDS011;10663;42.714;23.274;2022-12-18T04:06:50;19.75;;;13.73;;
21010;SDS011;10663;42.714;23.274;2022-12-18T04:08:23;16.38;;;12.73;;
21010;SDS011;10663;42.714;23.274;2022-12-18T04:10:07;17.58;;;13.13;;
21010;SDS011;10663;42.714;23.274;2022-12-18T04:11:42;18.80;;;13.50;;
21010;SDS011;10663;42.714;23.274;2022-12-18T04:13:21;18.83;;;13.27;;
21010;SDS011;10663;42.714;23.274;2022-12-18T04:14:59;16.98;;;12.98;;
21010;SDS011;10663;42.714;23.274;2022-12-18T04:16:30;20.70;;;14.05;;
21010;SDS011;10663;42.714;23.274;2022-12-18T04:18:05;19.48;;;14.35;;
21010;SDS011;10663;42.714;23.274;2022-12-18T04:19:43;18.67;;;13.85;;
21010;SDS011;10663;42.714;23.274;2022-12-18T04:21:14;20.55;;;14.13;;
21010;SDS011;10663;42.714;23.274;2022-12-18T04:22:46;17.92;;;13.75;;
21010;SDS011;10663;42.714;23.274;2022-12-18T04:24:17;19.83;;;13.98;;
21010;SDS011;10663;42.714;23.274;2022-12-18T04:25:57;22.20;;;14.23;;
21010;SDS011;10663;42.714;23.274;2022-12-18T04:27:44;19.52;;;13.65;;
21010;SDS011;10663;42.714;23.274;2022-12-18T04:29:16;21.50;;;14.55;;
21010;SDS011;10663;42.714;23.274;2022-12-18T04:30:47;18.95;;;14.77;;
21010;SDS011;10663;42.714;23.274;2022-12-18T04:32:18;20.73;;;14.77;;
21010;SDS011;10663;42.714;23.274;2022-12-18T04:33:49;23.27;;;15.50;;
21010;SDS011;10663;42.714;23.274;2022-12-18T04:35:21;23.05;;;15.45;;
21010;SDS011;10663;42.714;23.274;2022-12-18T04:36:51;21.10;;;14.77;;
21010;SDS011;10663;42.714;23.274;2022-12-18T04:38:24;22.97;;;15.40;;
21010;SDS011;10663;42.714;23.274;2022-12-18T04:40:02;24.15;;;16.60;;
21010;SDS011;10663;42.714;23.274;2022-12-18T04:41:42;21.08;;;15.38;;
21010;SDS011;10663;42.714;23.274;2022-12-18T04:43:14;22.15;;;15.98;;
21010;SDS011;10663;42.714;23.274;2022-12-18T04:44:44;19.88;;;15.20;;
21010;SDS011;10663;42.714;23.274;2022-12-18T04:46:15;23.67;;;16.00;;
21010;SDS011;10663;42.714;23.274;2022-12-18T04:47:46;22.97;;;15.87;;
21010;SDS011;10663;42.714;23.274;2022-12-18T04:49:17;23.33;;;15.30;;
21010;SDS011;10663;42.714;23.274;2022-12-18T04:50:48;21.80;;;15.63;;
21010;SDS011;10663;42.714;23.274;2022-12-18T04:52:19;23.10;;;16.58;;
21010;SDS011;10663;42.714;23.274;2022-12-18T04:53:49;21.53;;;15.80;;
21010;SDS011;10663;42.714;23.274;2022-12-18T04:55:21;22.75;;;16.02;;
21010;SDS011;10663;42.714;23.274;2022-12-18T04:56:52;27.25;;;17.60;;
21010;SDS011;10663;42.714;23.274;2022-12-18T04:58:22;23.63;;;17.00;;
21010;SDS011;10663;42.714;23.274;2022-12-18T04:59:53;25.58;;;17.98;;
21010;SDS011;10663;42.714;23.274;2022-12-18T05:01:24;22.30;;;16.33;;
21010;SDS011;10663;42.714;23.274;2022-12-18T05:02:55;24.27;;;17.02;;
21010;SDS011;10663;42.714;23.274;2022-12-18T05:04:26;24.83;;;17.17;;
21010;SDS011;10663;42.714;23.274;2022-12-18T05:05:56;24.87;;;16.87;;
21010;SDS011;10663;42.714;23.274;2022-12-18T05:07:27;24.83;;;17.55;;
21010;SDS011;10663;42.714;23.274;2022-12-18T05:08:58;26.37;;;18.17;;
21010;SDS011;10663;42.714;23.274;2022-12-18T05:10:29;22.08;;;17.33;;
21010;SDS011;10663;42.714;23.274;2022-12-18T05:12:00;25.57;;;18.13;;
21010;SDS011;10663;42.714;23.274;2022-12-18T05:13:31;27.02;;;18.25;;
21010;SDS011;10663;42.714;23.274;2022-12-18T05:15:02;26.63;;;18.00;;
21010;SDS011;10663;42.714;23.274;2022-12-18T05:16:33;23.95;;;17.75;;
21010;SDS011;10663;42.714;23.274;2022-12-18T05:18:04;28.35;;;18.10;;
21010;SDS011;10663;42.714;23.274;2022-12-18T05:19:35;27.30;;;17.95;;
21010;SDS011;10663;42.714;23.274;2022-12-18T05:21:06;25.67;;;17.95;;
21010;SDS011;10663;42.714;23.274;2022-12-18T05:22:37;26.33;;;17.85;;
21010;SDS011;10663;42.714;23.274;2022-12-18T05:24:08;24.27;;;17.13;;
21010;SDS011;10663;42.714;23.274;2022-12-18T05:25:38;24.83;;;17.17;;
21010;SDS011;10663;42.714;23.274;2022-12-18T05:27:09;26.00;;;17.50;;
21010;SDS011;10663;42.714;23.274;2022-12-18T05:28:40;25.10;;;18.30;;
21010;SDS011;10663;42.714;23.274;2022-12-18T05:30:11;25.03;;;17.47;;
21010;SDS011;10663;42.714;23.274;2022-12-18T05:31:43;23.55;;;16.15;;
21010;SDS011;10663;42.714;23.274;2022-12-18T05:33:14;28.55;;;17.88;;
21010;SDS011;10663;42.714;23.274;2022-12-18T05:34:44;25.27;;;17.40;;
21010;SDS011;10663;42.714;23.274;2022-12-18T05:36:15;24.25;;;17.98;;
21010;SDS011;10663;42.714;23.274;2022-12-18T05:37:46;25.70;;;18.38;;
21010;SDS011;10663;42.714;23.274;2022-12-18T05:39:17;26.55;;;18.58;;
21010;SDS011;10663;42.714;23.274;2022-12-18T05:40:48;28.30;;;18.23;;
21010;SDS011;10663;42.714;23.274;2022-12-18T05:42:19;25.45;;;17.80;;
21010;SDS011;10663;42.714;23.274;2022-12-18T05:43:50;26.38;;;18.40;;
21010;SDS011;10663;42.714;23.274;2022-12-18T05:45:21;27.80;;;19.23;;
21010;SDS011;10663;42.714;23.274;2022-12-18T05:46:52;25.58;;;17.83;;
21010;SDS011;10663;42.714;23.274;2022-12-18T05:48:25;25.37;;;18.17;;
21010;SDS011;10663;42.714;23.274;2022-12-18T05:49:56;25.87;;;18.67;;
21010;SDS011;10663;42.714;23.274;2022-12-18T05:51:27;29.02;;;18.60;;
21010;SDS011;10663;42.714;23.274;2022-12-18T05:52:58;27.80;;;18.90;;
21010;SDS011;10663;42.714;23.274;2022-12-18T05:54:29;30.42;;;19.83;;
21010;SDS011;10663;42.714;23.274;2022-12-18T05:56:04;25.10;;;18.30;;
21010;SDS011;10663;42.714;23.274;2022-12-18T05:57:37;26.25;;;18.20;;
21010;SDS011;10663;42.714;23.274;2022-12-18T05:59:08;29.02;;;19.52;;
21010;SDS011;10663;42.714;23.274;2022-12-18T06:00:40;27.63;;;19.15;;
21010;SDS011;10663;42.714;23.274;2022-12-18T06:02:13;27.20;;;18.50;;
21010;SDS011;10663;42.714;23.274;2022-12-18T06:03:44;27.48;;;19.38;;
21010;SDS011;10663;42.714;23.274;2022-12-18T06:05:15;27.10;;;19.67;;
21010;SDS011;10663;42.714;23.274;2022-12-18T06:06:45;27.50;;;18.88;;
21010;SDS011;10663;42.714;23.274;2022-12-18T06:08:16;28.55;;;19.15;;
21010;SDS011;10663;42.714;23.274;2022-12-18T06:09:47;27.07;;;18.80;;
21010;SDS011;10663;42.714;23.274;2022-12-18T06:11:21;26.40;;;18.17;;
21010;SDS011;10663;42.714;23.274;2022-12-18T06:12:53;27.83;;;19.02;;
21010;SDS011;10663;42.714;23.274;2022-12-18T06:14:24;27.50;;;19.43;;
21010;SDS011;10663;42.714;23.274;2022-12-18T06:15:55;26.23;;;18.50;;
21010;SDS011;10663;42.714;23.274;2022-12-18T06:17:29;27.50;;;18.27;;
21010;SDS011;10663;42.714;23.274;2022-12-18T06:19:01;28.30;;;18.97;;
21010;SDS011;10663;42.714;23.274;2022-12-18T06:20:34;26.10;;;19.00;;
21010;SDS011;10663;42.714;23.274;2022-12-18T06:22:06;26.80;;;18.07;;
21010;SDS011;10663;42.714;23.274;2022-12-18T06:23:37;27.07;;;18.20;;
21010;SDS011;10663;42.714;23.274;2022-12-18T06:25:08;25.02;;;18.17;;
21010;SDS011;10663;42.714;23.274;2022-12-18T06:26:39;27.93;;;18.20;;
21010;SDS011;10663;42.714;23.274;2022-12-18T06:28:10;26.70;;;18.67;;
21010;SDS011;10663;42.714;23.274;2022-12-18T06:29:41;25.30;;;18.47;;
21010;SDS011;10663;42.714;23.274;2022-12-18T06:31:12;25.42;;;17.25;;
21010;SDS011;10663;42.714;23.274;2022-12-18T06:32:43;26.83;;;18.25;;
21010;SDS011;10663;42.714;23.274;2022-12-18T06:34:13;25.50;;;18.15;;
21010;SDS011;10663;42.714;23.274;2022-12-18T06:35:44;22.58;;;17.27;;
21010;SDS011;10663;42.714;23.274;2022-12-18T06:37:15;27.98;;;19.25;;
21010;SDS011;10663;42.714;23.274;2022-12-18T06:38:46;26.25;;;18.40;;
21010;SDS011;10663;42.714;23.274;2022-12-18T06:40:17;28.55;;;18.48;;
21010;SDS011;10663;42.714;23.274;2022-12-18T06:41:48;22.75;;;16.88;;
21010;SDS011;10663;42.714;23.274;2022-12-18T06:43:19;25.13;;;16.60;;
21010;SDS011;10663;42.714;23.274;2022-12-18T06:44:50;24.45;;;16.63;;
21010;SDS011;10663;42.714;23.274;2022-12-18T06:46:21;25.27;;;17.40;;
21010;SDS011;10663;42.714;23.274;2022-12-18T06:47:52;21.42;;;16.33;;
21010;SDS011;10663;42.714;23.274;2022-12-18T06:49:23;24.27;;;17.10;;
21010;SDS011;10663;42.714;23.274;2022-12-18T06:50:53;22.50;;;16.20;;
21010;SDS011;10663;42.714;23.274;2022-12-18T06:52:25;26.80;;;16.92;;
21010;SDS011;10663;42.714;23.274;2022-12-18T06:53:56;21.90;;;15.48;;
21010;SDS011;10663;42.714;23.274;2022-12-18T06:55:26;24.07;;;15.33;;
21010;SDS011;10663;42.714;23.274;2022-12-18T06:56:57;23.52;;;16.38;;
21010;SDS011;10663;42.714;23.274;2022-12-18T06:58:28;26.80;;;18.30;;
21010;SDS011;10663;42.714;23.274;2022-12-18T06:59:59;23.95;;;16.30;;
21010;SDS011;10663;42.714;23.274;2022-12-18T07:01:30;28.35;;;17.85;;
21010;SDS011;10663;42.714;23.274;2022-12-18T07:03:01;27.83;;;18.20;;
21010;SDS011;10663;42.714;23.274;2022-12-18T07:04:32;25.98;;;18.02;;
21010;SDS011;10663;42.714;23.274;2022-12-18T07:06:03;26.15;;;18.75;;
21010;SDS011;10663;42.714;23.274;2022-12-18T07:07:34;27.48;;;19.42;;
21010;SDS011;10663;42.714;23.274;2022-12-18T07:09:05;29.58;;;19.20;;
21010;SDS011;10663;42.714;23.274;2022-12-18T07:10:43;28.77;;;19.88;;
21010;SDS011;10663;42.714;23.274;2022-12-18T07:12:14;29.60;;;21.15;;
21010;SDS011;10663;42.714;23.274;2022-12-18T07:13:45;28.38;;;20.23;;
21010;SDS011;10663;42.714;23.274;2022-12-18T07:15:16;29.70;;;20.63;;
21010;SDS011;10663;42.714;23.274;2022-12-18T07:16:47;31.33;;;22.20;;
21010;SDS011;10663;42.714;23.274;2022-12-18T07:18:18;31.77;;;21.53;;
21010;SDS011;10663;42.714;23.274;2022-12-18T07:19:49;30.23;;;20.57;;
21010;SDS011;10663;42.714;23.274;2022-12-18T07:21:20;29.30;;;20.43;;
21010;SDS011;10663;42.714;23.274;2022-12-18T07:22:51;31.85;;;21.42;;
21010;SDS011;10663;42.714;23.274;2022-12-18T07:24:22;30.90;;;21.33;;
21010;SDS011;10663;42.714;23.274;2022-12-18T07:25:52;31.47;;;21.57;;
21010;SDS011;10663;42.714;23.274;2022-12-18T07:27:23;33.83;;;22.83;;
21010;SDS011;10663;42.714;23.274;2022-12-18T07:28:55;33.17;;;23.13;;
21010;SDS011;10663;42.714;23.274;2022-12-18T07:30:27;31.27;;;22.02;;
21010;SDS011;10663;42.714;23.274;2022-12-18T07:31:59;32.33;;;22.00;;
21010;SDS011;10663;42.714;23.274;2022-12-18T07:33:29;32.17;;;21.48;;
21010;SDS011;10663;42.714;23.274;2022-12-18T07:35:00;34.08;;;22.17;;
21010;SDS011;10663;42.714;23.274;2022-12-18T07:36:31;33.78;;;21.67;;
21010;SDS011;10663;42.714;23.274;2022-12-18T07:38:02;35.22;;;24.23;;
21010;SDS011;10663;42.714;23.274;2022-12-18T07:39:33;32.08;;;22.80;;
21010;SDS011;10663;42.714;23.274;2022-12-18T07:41:05;34.85;;;22.17;;
21010;SDS011;10663;42.714;23.274;2022-12-18T07:42:38;32.35;;;22.42;;
21010;SDS011;10663;42.714;23.274;2022-12-18T07:44:09;34.85;;;22.60;;
21010;SDS011;10663;42.714;23.274;2022-12-18T07:45:41;32.25;;;21.90;;
21010;SDS011;10663;42.714;23.274;2022-12-18T07:47:13;33.47;;;22.52;;
21010;SDS011;10663;42.714;23.274;2022-12-18T07:48:44;34.13;;;23.08;;
21010;SDS011;10663;42.714;23.274;2022-12-18T07:50:15;31.77;;;22.60;;
21010;SDS011;10663;42.714;23.274;2022-12-18T07:51:46;33.83;;;22.70;;
21010;SDS011;10663;42.714;23.274;2022-12-18T07:53:19;34.58;;;23.42;;
21010;SDS011;10663;42.714;23.274;2022-12-18T07:54:50;35.45;;;23.92;;
21010;SDS011;10663;42.714;23.274;2022-12-18T07:56:21;36.20;;;23.30;;
21010;SDS011;10663;42.714;23.274;2022-12-18T07:57:52;35.03;;;22.23;;
21010;SDS011;10663;42.714;23.274;2022-12-18T07:59:23;32.67;;;22.65;;
21010;SDS011;10663;42.714;23.274;2022-12-18T08:00:54;34.13;;;22.73;;
21010;SDS011;10663;42.714;23.274;2022-12-18T08:02:32;35.65;;;22.98;;
21010;SDS011;10663;42.714;23.274;2022-12-18T08:04:02;33.35;;;22.35;;
21010;SDS011;10663;42.714;23.274;2022-12-18T08:05:33;34.50;;;22.58;;
21010;SDS011;10663;42.714;23.274;2022-12-18T08:07:04;32.10;;;21.92;;
21010;SDS011;10663;42.714;23.274;2022-12-18T08:08:35;32.47;;;22.80;;
21010;SDS011;10663;42.714;23.274;2022-12-18T08:10:06;32.40;;;22.00;;
21010;SDS011;10663;42.714;23.274;2022-12-18T08:11:37;34.83;;;24.30;;
21010;SDS011;10663;42.714;23.274;2022-12-18T08:13:08;33.38;;;22.50;;
21010;SDS011;10663;42.714;23.274;2022-12-18T08:14:39;33.28;;;22.20;;
21010;SDS011;10663;42.714;23.274;2022-12-18T08:16:10;34.22;;;23.02;;
21010;SDS011;10663;42.714;23.274;2022-12-18T08:17:41;32.78;;;22.73;;
21010;SDS011;10663;42.714;23.274;2022-12-18T08:19:11;34.10;;;23.00;;
21010;SDS011;10663;42.714;23.274;2022-12-18T08:20:42;30.98;;;22.13;;
21010;SDS011;10663;42.714;23.274;2022-12-18T08:22:13;33.78;;;22.17;;
21010;SDS011;10663;42.714;23.274;2022-12-18T08:23:44;30.58;;;21.38;;
21010;SDS011;10663;42.714;23.274;2022-12-18T08:25:15;31.67;;;20.52;;
21010;SDS011;10663;42.714;23.274;2022-12-18T08:26:46;29.38;;;21.13;;
21010;SDS011;10663;42.714;23.274;2022-12-18T08:28:17;30.40;;;21.33;;
21010;SDS011;10663;42.714;23.274;2022-12-18T08:29:48;32.08;;;21.20;;
21010;SDS011;10663;42.714;23.274;2022-12-18T08:31:18;27.77;;;20.58;;
21010;SDS011;10663;42.714;23.274;2022-12-18T08:32:52;31.37;;;21.60;;
21010;SDS011;10663;42.714;23.274;2022-12-18T08:34:24;31.38;;;20.52;;
21010;SDS011;10663;42.714;23.274;2022-12-18T08:35:55;30.98;;;20.77;;
21010;SDS011;10663;42.714;23.274;2022-12-18T08:37:26;31.25;;;20.60;;
21010;SDS011;10663;42.714;23.274;2022-12-18T08:38:57;32.20;;;21.57;;
21010;SDS011;10663;42.714;23.274;2022-12-18T08:40:28;32.23;;;21.77;;
21010;SDS011;10663;42.714;23.274;2022-12-18T08:41:58;29.58;;;20.08;;
21010;SDS011;10663;42.714;23.274;2022-12-18T08:43:48;28.45;;;19.85;;
21010;SDS011;10663;42.714;23.274;2022-12-18T08:45:38;30.23;;;19.45;;
21010;SDS011;10663;42.714;23.274;2022-12-18T08:47:08;29.47;;;19.23;;
21010;SDS011;10663;42.714;23.274;2022-12-18T08:48:39;28.90;;;18.77;;
21010;SDS011;10663;42.714;23.274;2022-12-18T08:50:10;27.83;;;18.97;;
21010;SDS011;10663;42.714;23.274;2022-12-18T08:51:42;28.52;;;19.08;;
21010;SDS011;10663;42.714;23.274;2022-12-18T08:53:12;27.10;;;18.98;;
21010;SDS011;10663;42.714;23.274;2022-12-18T08:54:43;26.80;;;18.00;;
21010;SDS011;10663;42.714;23.274;2022-12-18T08:56:14;26.70;;;18.27;;
21010;SDS011;10663;42.714;23.274;2022-12-18T08:57:48;29.30;;;19.47;;
21010;SDS011;10663;42.714;23.274;2022-12-18T08:59:20;27.00;;;18.38;;
21010;SDS011;10663;42.714;23.274;2022-12-18T09:00:50;29.75;;;20.27;;
21010;SDS011;10663;42.714;23.274;2022-12-18T09:02:21;27.88;;;18.13;;
21010;SDS011;10663;42.714;23.274;2022-12-18T09:03:52;29.40;;;19.88;;
21010;SDS011;10663;42.714;23.274;2022-12-18T09:05:23;25.80;;;18.20;;
21010;SDS011;10663;42.714;23.274;2022-12-18T09:06:54;27.00;;;18.55;;
21010;SDS011;10663;42.714;23.274;2022-12-18T09:08:26;27.33;;;18.77;;
21010;SDS011;10663;42.714;23.274;2022-12-18T09:09:57;27.13;;;18.35;;
21010;SDS011;10663;42.714;23.274;2022-12-18T09:11:28;26.27;;;17.95;;
21010;SDS011;10663;42.714;23.274;2022-12-18T09:13:01;26.02;;;18.52;;
21010;SDS011;10663;42.714;23.274;2022-12-18T09:14:32;25.48;;;17.55;;
21010;SDS011;10663;42.714;23.274;2022-12-18T09:16:03;25.63;;;17.05;;
21010;SDS011;10663;42.714;23.274;2022-12-18T09:17:34;28.05;;;18.02;;
21010;SDS011;10663;42.714;23.274;2022-12-18T09:19:05;25.17;;;17.02;;
21010;SDS011;10663;42.714;23.274;2022-12-18T09:20:36;24.10;;;16.65;;